Time;durP1;ratioP1;P1;durP2;ratioP2;P2;SDS_P1;SDS_P2;PMS_P1;PMS_P2;Temp;Humidity;BMP_temperature;BMP_pressure;BME280_temperature;BME280_humidity;BME280_pressure;Samples;Min_cycle;Max_cycle;Signal;HPM_P1;HPM_P2
2022/06/18 00:01:37;;;;;;;8.00;5.97;;;;;;;;;;5076683;28;20040;-81
2022/06/18 00:04:14;;;;;;;7.97;6.00;;;;;;;;;;5059749;28;20537;-81
2022/06/18 00:06:43;;;;;;;8.10;6.20;;;;;;;;;;5059613;28;20082;-81
2022/06/18 00:09:13;;;;;;;8.02;6.18;;;;;;;;;;5076050;28;20039;-81
2022/06/18 00:14:24;;;;;;;9.00;6.10;;;;;;;;;;5074799;28;20044;-80
2022/06/18 00:16:50;;;;;;;9.15;6.22;;;;;;;;;;5059594;28;20578;-81
2022/06/18 00:19:17;;;;;;;8.45;6.07;;;;;;;;;;5059578;28;20047;-81
2022/06/18 00:21:43;;;;;;;7.47;5.95;;;;;;;;;;5076184;28;20526;-81
2022/06/18 00:24:17;;;;;;;8.70;5.72;;;;;;;;;;5059452;28;20040;-81
2022/06/18 00:26:44;;;;;;;8.63;5.93;;;;;;;;;;5077271;28;20047;-82
2022/06/18 00:29:15;;;;;;;8.52;6.45;;;;;;;;;;5058708;28;20561;-81
2022/06/18 00:31:41;;;;;;;9.35;6.75;;;;;;;;;;5059293;28;20043;-81
2022/06/18 00:34:12;;;;;;;10.55;6.60;;;;;;;;;;5059097;28;20545;-81
2022/06/18 00:36:40;;;;;;;9.82;6.20;;;;;;;;;;5059243;28;20075;-81
2022/06/18 00:39:08;;;;;;;10.02;7.03;;;;;;;;;;5058557;28;20046;-81
2022/06/18 00:41:34;;;;;;;8.02;6.25;;;;;;;;;;5058855;28;20040;-81
2022/06/18 00:44:05;;;;;;;10.35;6.47;;;;;;;;;;5074128;28;20044;-81
2022/06/18 00:46:35;;;;;;;9.20;6.30;;;;;;;;;;5075174;28;20048;-81
2022/06/18 00:49:20;;;;;;;8.73;6.20;;;;;;;;;;5059179;28;20624;-81
2022/06/18 00:52:18;;;;;;;8.30;6.57;;;;;;;;;;5059159;28;20062;-81
2022/06/18 00:55:04;;;;;;;8.40;6.22;;;;;;;;;;4999684;28;20049;-82
2022/06/18 00:57:40;;;;;;;9.95;6.90;;;;;;;;;;5052018;28;20525;-82
2022/06/18 01:00:11;;;;;;;9.75;5.97;;;;;;;;;;5057848;28;20055;-81
2022/06/18 01:02:40;;;;;;;8.70;6.05;;;;;;;;;;5058482;28;20071;-81
2022/06/18 01:05:23;;;;;;;7.97;6.15;;;;;;;;;;5058831;28;20044;-82
2022/06/18 01:07:55;;;;;;;9.32;6.15;;;;;;;;;;5058771;28;20487;-82
2022/06/18 01:10:30;;;;;;;8.73;6.68;;;;;;;;;;5074201;28;20058;-83
2022/06/18 01:12:57;;;;;;;9.15;6.30;;;;;;;;;;5057870;28;20039;-81
2022/06/18 01:15:24;;;;;;;8.93;6.60;;;;;;;;;;5056655;28;20484;-82
2022/06/18 01:17:53;;;;;;;9.65;6.82;;;;;;;;;;5073287;28;20040;-82
2022/06/18 01:20:19;;;;;;;9.30;6.82;;;;;;;;;;5058720;28;20047;-83
2022/06/18 01:23:04;;;;;;;8.45;6.07;;;;;;;;;;5059356;28;20047;-81
2022/06/18 01:25:31;;;;;;;7.95;6.13;;;;;;;;;;5059746;28;20404;-82
2022/06/18 01:27:57;;;;;;;7.88;5.72;;;;;;;;;;5059142;28;20036;-81
2022/06/18 01:30:25;;;;;;;8.75;6.13;;;;;;;;;;5059963;28;20044;-81
2022/06/18 01:32:53;;;;;;;9.23;6.20;;;;;;;;;;5058470;28;20042;-81
2022/06/18 01:35:20;;;;;;;9.23;6.28;;;;;;;;;;5059599;28;20040;-81
2022/06/18 01:37:46;;;;;;;9.68;6.75;;;;;;;;;;5075148;28;20044;-81
2022/06/18 01:40:15;;;;;;;9.13;6.55;;;;;;;;;;5058492;28;20067;-80
2022/06/18 01:42:45;;;;;;;10.00;6.50;;;;;;;;;;5058968;28;20376;-81
2022/06/18 01:45:23;;;;;;;8.43;6.35;;;;;;;;;;5074884;28;20508;-81
2022/06/18 01:47:54;;;;;;;10.27;7.13;;;;;;;;;;5058275;28;20394;-81
2022/06/18 01:50:22;;;;;;;8.82;6.35;;;;;;;;;;5058505;28;20036;-81
2022/06/18 01:52:51;;;;;;;9.10;6.50;;;;;;;;;;5057899;28;20040;-81
2022/06/18 01:55:20;;;;;;;9.05;6.50;;;;;;;;;;5058242;28;20130;-81
2022/06/18 01:57:48;;;;;;;9.30;7.55;;;;;;;;;;5074566;28;20036;-81
2022/06/18 02:00:20;;;;;;;10.02;6.78;;;;;;;;;;5074863;28;20048;-81
2022/06/18 02:02:46;;;;;;;9.45;6.60;;;;;;;;;;5058481;28;20055;-81
2022/06/18 02:05:14;;;;;;;9.15;6.65;;;;;;;;;;5074618;28;20131;-81
2022/06/18 02:07:41;;;;;;;8.27;6.32;;;;;;;;;;5059072;28;20100;-81
2022/06/18 02:10:10;;;;;;;9.43;7.03;;;;;;;;;;5074894;28;20051;-81
2022/06/18 02:12:38;;;;;;;9.48;6.32;;;;;;;;;;5057813;28;20036;-81
2022/06/18 02:15:06;;;;;;;9.32;7.20;;;;;;;;;;5057639;28;20043;-82
2022/06/18 02:17:33;;;;;;;10.57;6.75;;;;;;;;;;5077163;28;20495;-81
2022/06/18 02:20:08;;;;;;;10.60;7.03;;;;;;;;;;5062420;28;20051;-82
2022/06/18 02:22:41;;;;;;;9.90;7.45;;;;;;;;;;5063616;28;20046;-82
2022/06/18 02:25:07;;;;;;;9.30;6.80;;;;;;;;;;5063247;28;20051;-82
2022/06/18 02:27:33;;;;;;;9.15;6.63;;;;;;;;;;5080272;28;20055;-81
2022/06/18 02:30:00;;;;;;;8.85;6.57;;;;;;;;;;5061490;28;20052;-82
2022/06/18 02:32:35;;;;;;;10.27;7.30;;;;;;;;;;5075171;28;20481;-82
2022/06/18 02:35:01;;;;;;;10.57;8.15;;;;;;;;;;5115441;28;20513;-82
2022/06/18 02:37:31;;;;;;;9.27;7.38;;;;;;;;;;5113949;28;20039;-82
2022/06/18 02:40:01;;;;;;;9.98;7.40;;;;;;;;;;5097824;28;20131;-82
2022/06/18 02:42:32;;;;;;;9.23;6.70;;;;;;;;;;5114276;28;20402;-82
2022/06/18 02:44:58;;;;;;;10.27;7.38;;;;;;;;;;5111129;28;20040;-82
2022/06/18 02:47:25;;;;;;;10.73;7.22;;;;;;;;;;5063103;28;20090;-81
2022/06/18 02:49:51;;;;;;;10.90;7.70;;;;;;;;;;5062848;28;20123;-81
2022/06/18 02:52:17;;;;;;;10.60;7.43;;;;;;;;;;5064283;28;20098;-81
2022/06/18 02:54:43;;;;;;;10.25;7.78;;;;;;;;;;5062990;28;20040;-81
2022/06/18 02:57:15;;;;;;;10.07;7.45;;;;;;;;;;5063611;28;20051;-81
2022/06/18 02:59:42;;;;;;;11.93;7.65;;;;;;;;;;5063724;28;20206;-81
2022/06/18 03:02:08;;;;;;;11.07;7.85;;;;;;;;;;5067280;28;20051;-81
2022/06/18 03:04:34;;;;;;;10.85;8.55;;;;;;;;;;5062594;28;20517;-81
2022/06/18 03:07:01;;;;;;;9.00;7.82;;;;;;;;;;5061220;28;20554;-82
2022/06/18 03:09:27;;;;;;;11.23;7.45;;;;;;;;;;5063477;28;20054;-81
2022/06/18 03:12:08;;;;;;;10.35;7.45;;;;;;;;;;5079424;28;20044;-81
2022/06/18 03:14:34;;;;;;;10.40;7.82;;;;;;;;;;5061117;28;20399;-81
2022/06/18 03:17:01;;;;;;;12.15;8.52;;;;;;;;;;5061830;28;20039;-82
2022/06/18 03:19:30;;;;;;;9.07;7.70;;;;;;;;;;5062210;28;20126;-82
2022/06/18 03:22:00;;;;;;;12.00;9.50;;;;;;;;;;5076490;28;20039;-81
2022/06/18 03:24:26;;;;;;;17.17;10.60;;;;;;;;;;5097534;28;20494;-80
2022/06/18 03:26:53;;;;;;;11.07;8.45;;;;;;;;;;5080708;28;20036;-81
2022/06/18 03:29:20;;;;;;;10.88;8.40;;;;;;;;;;5101292;27;20053;-81
2022/06/18 03:31:46;;;;;;;10.70;9.00;;;;;;;;;;5101383;27;20402;-81
2022/06/18 03:34:12;;;;;;;11.02;8.18;;;;;;;;;;5118335;27;20039;-81
2022/06/18 03:36:38;;;;;;;10.07;7.68;;;;;;;;;;5109796;27;20114;-81
2022/06/18 03:39:05;;;;;;;12.15;8.70;;;;;;;;;;5120533;27;20042;-81
2022/06/18 03:41:31;;;;;;;10.65;8.52;;;;;;;;;;5124686;27;20030;-81
2022/06/18 03:43:57;;;;;;;11.35;9.48;;;;;;;;;;5121015;27;20066;-81
2022/06/18 03:46:23;;;;;;;10.40;7.90;;;;;;;;;;5138396;27;20047;-81
2022/06/18 03:48:49;;;;;;;9.98;8.18;;;;;;;;;;5120908;27;20034;-81
2022/06/18 03:51:16;;;;;;;10.00;8.65;;;;;;;;;;5138167;27;20035;-81
2022/06/18 03:53:42;;;;;;;12.63;9.90;;;;;;;;;;5121878;27;20035;-81
2022/06/18 03:56:13;;;;;;;11.77;9.13;;;;;;;;;;5120809;27;20050;-81
2022/06/18 03:58:39;;;;;;;13.63;11.13;;;;;;;;;;5122806;27;20459;-81
2022/06/18 04:01:06;;;;;;;12.93;10.77;;;;;;;;;;5139063;27;20498;-81
2022/06/18 04:03:32;;;;;;;17.20;11.00;;;;;;;;;;5138548;27;20035;-81
2022/06/18 04:05:58;;;;;;;14.27;11.05;;;;;;;;;;5122408;27;20566;-82
2022/06/18 04:08:25;;;;;;;14.75;13.15;;;;;;;;;;5142219;27;20098;-81
2022/06/18 04:10:51;;;;;;;15.65;13.23;;;;;;;;;;5138382;27;20037;-80
2022/06/18 04:13:17;;;;;;;21.00;15.07;;;;;;;;;;5137823;27;20486;-81
2022/06/18 04:15:45;;;;;;;17.63;14.93;;;;;;;;;;5139762;27;20074;-81
2022/06/18 04:18:15;;;;;;;17.50;15.13;;;;;;;;;;5140662;27;20046;-81
2022/06/18 04:20:41;;;;;;;19.55;14.77;;;;;;;;;;5119723;27;20473;-81
2022/06/18 04:23:08;;;;;;;25.95;14.98;;;;;;;;;;5140608;27;20038;-81
2022/06/18 04:25:34;;;;;;;15.80;13.90;;;;;;;;;;5122980;27;20042;-81
2022/06/18 04:28:00;;;;;;;16.42;12.65;;;;;;;;;;5139461;27;20046;-81
2022/06/18 04:30:27;;;;;;;15.13;13.52;;;;;;;;;;5123348;27;20042;-81
2022/06/18 04:32:54;;;;;;;19.98;14.60;;;;;;;;;;5143416;27;20081;-81
2022/06/18 04:35:20;;;;;;;19.27;14.93;;;;;;;;;;5125805;27;20520;-81
2022/06/18 04:37:48;;;;;;;17.33;15.50;;;;;;;;;;5124204;27;20050;-81
2022/06/18 04:40:17;;;;;;;19.23;15.48;;;;;;;;;;5123387;27;20494;-81
2022/06/18 04:42:43;;;;;;;23.63;18.85;;;;;;;;;;5124571;27;20086;-80
2022/06/18 04:45:10;;;;;;;27.10;22.05;;;;;;;;;;5129193;27;20114;-81
2022/06/18 04:47:36;;;;;;;22.40;19.98;;;;;;;;;;5111791;27;20405;-81
2022/06/18 04:50:07;;;;;;;24.70;21.00;;;;;;;;;;5141769;27;20565;-81
2022/06/18 04:52:33;;;;;;;25.42;20.40;;;;;;;;;;5139209;27;20045;-80
2022/06/18 04:54:59;;;;;;;22.38;18.80;;;;;;;;;;5136707;27;20049;-81
2022/06/18 04:57:25;;;;;;;28.52;22.35;;;;;;;;;;5107685;27;20045;-80
2022/06/18 04:59:51;;;;;;;28.65;24.63;;;;;;;;;;5119930;27;20034;-82
2022/06/18 05:02:25;;;;;;;25.25;22.45;;;;;;;;;;5102283;27;20398;-81
2022/06/18 05:04:51;;;;;;;21.95;17.55;;;;;;;;;;5137758;27;20063;-81
2022/06/18 05:07:18;;;;;;;22.20;19.75;;;;;;;;;;5135630;27;20118;-81
2022/06/18 05:09:44;;;;;;;27.80;20.80;;;;;;;;;;5125734;27;20035;-81
2022/06/18 05:12:12;;;;;;;23.90;21.40;;;;;;;;;;5136368;27;20083;-81
2022/06/18 05:14:38;;;;;;;24.67;21.95;;;;;;;;;;5116667;27;20402;-80
2022/06/18 05:17:06;;;;;;;30.25;23.42;;;;;;;;;;5108791;27;20046;-82
2022/06/18 05:19:33;;;;;;;29.77;23.73;;;;;;;;;;5105314;28;20039;-81
2022/06/18 05:22:00;;;;;;;27.90;22.67;;;;;;;;;;5102084;27;20282;-80
2022/06/18 05:24:26;;;;;;;30.90;24.45;;;;;;;;;;5120988;27;20458;-81
2022/06/18 05:26:56;;;;;;;30.55;22.65;;;;;;;;;;5120672;27;20038;-81
2022/06/18 05:29:22;;;;;;;33.67;23.35;;;;;;;;;;5101532;28;20105;-80
2022/06/18 05:31:48;;;;;;;29.92;23.13;;;;;;;;;;5112319;28;20040;-80
2022/06/18 05:34:14;;;;;;;27.40;21.85;;;;;;;;;;5113325;28;20491;-80
2022/06/18 05:36:41;;;;;;;27.23;21.75;;;;;;;;;;5112738;28;20046;-81
2022/06/18 05:39:07;;;;;;;26.75;22.17;;;;;;;;;;5110489;28;20047;-82
2022/06/18 05:41:33;;;;;;;25.70;21.95;;;;;;;;;;5095691;28;20541;-81
2022/06/18 05:44:02;;;;;;;26.63;20.27;;;;;;;;;;5118728;28;20396;-82
2022/06/18 05:46:28;;;;;;;31.60;24.67;;;;;;;;;;5098807;28;20058;-81
2022/06/18 05:48:54;;;;;;;26.70;23.02;;;;;;;;;;5096948;28;20035;-82
2022/06/18 05:51:20;;;;;;;31.77;24.90;;;;;;;;;;5098555;27;20055;-81
2022/06/18 05:53:48;;;;;;;30.38;22.58;;;;;;;;;;5096914;28;20039;-81
2022/06/18 05:56:14;;;;;;;28.48;22.45;;;;;;;;;;5099496;28;20043;-81
2022/06/18 05:58:41;;;;;;;27.88;23.30;;;;;;;;;;5098594;28;20043;-82
2022/06/18 06:01:07;;;;;;;28.23;24.15;;;;;;;;;;5113159;27;20081;-81
2022/06/18 06:03:34;;;;;;;28.42;23.48;;;;;;;;;;5115216;28;20047;-80
2022/06/18 06:06:00;;;;;;;27.02;24.08;;;;;;;;;;5082887;28;20414;-82
2022/06/18 06:08:26;;;;;;;28.10;22.67;;;;;;;;;;5098592;28;20039;-81
2022/06/18 06:13:37;;;;;;;31.02;23.92;;;;;;;;;;5087836;27;20039;-80
2022/06/18 06:16:04;;;;;;;30.02;21.67;;;;;;;;;;5101707;27;20058;-80
2022/06/18 06:18:31;;;;;;;26.70;20.80;;;;;;;;;;5106605;27;20043;-80
2022/06/18 06:20:59;;;;;;;27.45;21.52;;;;;;;;;;5100904;27;20039;-81
2022/06/18 06:23:26;;;;;;;26.63;20.27;;;;;;;;;;5116946;27;20080;-82
2022/06/18 06:25:52;;;;;;;25.27;19.13;;;;;;;;;;5117747;27;20498;-81
2022/06/18 06:28:20;;;;;;;23.50;18.80;;;;;;;;;;5102259;27;20051;-81
2022/06/18 06:30:47;;;;;;;29.25;20.48;;;;;;;;;;5100023;27;20080;-80
2022/06/18 06:33:13;;;;;;;24.05;19.30;;;;;;;;;;5112244;28;20093;-81
2022/06/18 06:35:43;;;;;;;25.73;19.02;;;;;;;;;;5087308;27;20039;-81
2022/06/18 06:38:10;;;;;;;21.38;17.73;;;;;;;;;;5086728;28;20043;-83
2022/06/18 06:40:37;;;;;;;22.58;16.67;;;;;;;;;;5119870;27;20043;-80
2022/06/18 06:43:04;;;;;;;19.58;16.00;;;;;;;;;;5085074;27;20039;-81
2022/06/18 06:45:32;;;;;;;18.73;13.93;;;;;;;;;;5125543;27;20050;-81
2022/06/18 06:47:58;;;;;;;19.75;12.80;;;;;;;;;;5108978;27;20031;-81
2022/06/18 06:50:25;;;;;;;16.95;12.23;;;;;;;;;;5122575;27;20131;-84
2022/06/18 06:52:52;;;;;;;19.80;12.68;;;;;;;;;;5098869;28;20046;-84
2022/06/18 06:58:10;;;;;;;19.70;15.43;;;;;;;;;;5097154;28;20043;-84
2022/06/18 07:00:39;;;;;;;19.85;13.32;;;;;;;;;;5102685;27;20035;-83
2022/06/18 07:03:05;;;;;;;19.98;12.40;;;;;;;;;;5090066;28;20118;-82
2022/06/18 07:05:31;;;;;;;17.67;13.15;;;;;;;;;;5104848;27;20043;-82
2022/06/18 07:08:00;;;;;;;20.38;12.25;;;;;;;;;;5085099;28;20491;-83
2022/06/18 07:10:26;;;;;;;18.58;11.32;;;;;;;;;;5081618;28;20042;-83
2022/06/18 07:12:53;;;;;;;17.73;12.00;;;;;;;;;;5077524;28;20576;-83
2022/06/18 07:15:19;;;;;;;19.17;12.88;;;;;;;;;;5089851;27;20046;-82
2022/06/18 07:17:45;;;;;;;15.05;10.35;;;;;;;;;;5083650;28;20239;-82
2022/06/18 07:20:15;;;;;;;17.35;10.88;;;;;;;;;;5096736;28;20035;-81
2022/06/18 07:23:03;;;;;;;17.13;11.35;;;;;;;;;;5070900;28;20119;-82
2022/06/18 07:25:29;;;;;;;16.40;10.25;;;;;;;;;;5070019;28;20040;-82
2022/06/18 07:27:56;;;;;;;19.17;10.60;;;;;;;;;;5094405;28;20041;-83
2022/06/18 07:30:22;;;;;;;17.40;10.45;;;;;;;;;;5087119;28;20051;-82
2022/06/18 07:32:49;;;;;;;16.15;10.35;;;;;;;;;;5082526;28;20504;-87
2022/06/18 07:35:20;;;;;;;17.38;10.38;;;;;;;;;;5081675;28;20557;-84
2022/06/18 07:37:46;;;;;;;14.88;9.63;;;;;;;;;;5079427;28;20032;-85
2022/06/18 07:40:13;;;;;;;14.82;10.10;;;;;;;;;;5081109;28;20040;-84
2022/06/18 07:42:39;;;;;;;14.55;9.27;;;;;;;;;;5088867;28;20048;-83
2022/06/18 07:45:06;;;;;;;12.93;8.88;;;;;;;;;;5085843;28;20040;-84
2022/06/18 07:47:33;;;;;;;14.27;8.65;;;;;;;;;;5094253;28;20035;-85
2022/06/18 07:49:59;;;;;;;13.02;8.70;;;;;;;;;;5095240;28;20067;-84
2022/06/18 07:52:25;;;;;;;14.48;8.32;;;;;;;;;;5084777;28;20032;-84
2022/06/18 07:54:51;;;;;;;12.15;7.95;;;;;;;;;;5085876;28;20046;-84
2022/06/18 07:57:17;;;;;;;12.85;7.07;;;;;;;;;;5078060;28;20453;-84
2022/06/18 07:59:43;;;;;;;13.23;7.90;;;;;;;;;;5088540;28;20576;-85
2022/06/18 08:02:11;;;;;;;15.05;8.52;;;;;;;;;;5081449;28;20075;-85
2022/06/18 08:04:37;;;;;;;13.93;8.18;;;;;;;;;;5079967;28;20043;-85
2022/06/18 08:07:13;;;;;;;12.38;7.28;;;;;;;;;;5088311;28;20039;-84
2022/06/18 08:09:39;;;;;;;13.82;8.23;;;;;;;;;;5088597;28;20560;-84
2022/06/18 08:12:05;;;;;;;14.10;8.98;;;;;;;;;;5081085;28;20081;-83
2022/06/18 08:14:31;;;;;;;13.48;8.05;;;;;;;;;;5096262;28;20320;-81
2022/06/18 08:16:58;;;;;;;11.05;9.50;;;;;;;;;;5089257;28;20438;-82
2022/06/18 08:19:24;;;;;;;15.00;9.60;;;;;;;;;;5072461;28;20040;-83
2022/06/18 08:21:50;;;;;;;15.18;9.13;;;;;;;;;;5072481;28;20372;-83
2022/06/18 08:24:20;;;;;;;13.80;9.98;;;;;;;;;;5087148;28;20043;-79
2022/06/18 08:26:48;;;;;;;16.95;9.02;;;;;;;;;;5113004;28;20063;-80
2022/06/18 08:29:17;;;;;;;10.35;6.03;;;;;;;;;;5121001;27;20083;-81
2022/06/18 08:31:44;;;;;;;10.15;5.28;;;;;;;;;;5113700;28;20036;-80
2022/06/18 08:34:10;;;;;;;12.13;5.38;;;;;;;;;;5125926;27;20066;-83
2022/06/18 08:36:37;;;;;;;15.38;6.63;;;;;;;;;;5079455;27;20368;-83
2022/06/18 08:39:04;;;;;;;12.32;6.60;;;;;;;;;;5124718;27;20046;-81
2022/06/18 08:41:56;;;;;;;12.20;6.53;;;;;;;;;;5110121;28;20039;-82
2022/06/18 08:44:22;;;;;;;12.63;6.85;;;;;;;;;;5056893;28;20043;-87
2022/06/18 08:46:58;;;;;;;10.50;6.57;;;;;;;;;;5114225;27;20040;-83
2022/06/18 08:49:27;;;;;;;12.55;7.28;;;;;;;;;;5103570;28;20050;-79
2022/06/18 08:51:53;;;;;;;9.90;6.22;;;;;;;;;;5109650;28;20040;-80
2022/06/18 08:54:19;;;;;;;12.52;6.10;;;;;;;;;;5094294;28;20036;-82
2022/06/18 08:56:48;;;;;;;13.77;6.28;;;;;;;;;;5127304;27;20146;-82
2022/06/18 08:59:15;;;;;;;11.02;6.25;;;;;;;;;;5094780;28;20040;-84
2022/06/18 09:01:45;;;;;;;12.23;7.15;;;;;;;;;;5106984;27;20042;-81
2022/06/18 09:04:23;;;;;;;11.75;7.05;;;;;;;;;;5132848;27;20046;-82
2022/06/18 09:07:19;;;;;;;11.20;6.05;;;;;;;;;;5102571;27;20031;-80
2022/06/18 09:09:54;;;;;;;8.32;5.05;;;;;;;;;;5104533;28;20477;-80
2022/06/18 09:12:24;;;;;;;10.43;6.25;;;;;;;;;;5111165;28;20065;-81
2022/06/18 09:14:59;;;;;;;9.25;5.43;;;;;;;;;;5095296;28;20136;-82
2022/06/18 09:17:42;;;;;;;12.50;5.70;;;;;;;;;;5079762;28;20135;-81
2022/06/18 09:20:09;;;;;;;9.43;5.40;;;;;;;;;;5095093;28;20050;-81
2022/06/18 09:22:39;;;;;;;8.48;4.70;;;;;;;;;;5095464;28;20112;-80
2022/06/18 09:25:09;;;;;;;7.88;4.20;;;;;;;;;;5094552;28;20043;-83
2022/06/18 09:27:39;;;;;;;7.97;3.78;;;;;;;;;;5082261;28;20126;-81
2022/06/18 09:30:09;;;;;;;8.80;3.75;;;;;;;;;;5100713;28;20131;-84
2022/06/18 09:33:13;;;;;;;8.77;3.35;;;;;;;;;;5098618;28;20045;-82
2022/06/18 09:35:49;;;;;;;8.00;2.70;;;;;;;;;;5095182;28;20208;-81
2022/06/18 09:38:27;;;;;;;6.25;3.10;;;;;;;;;;5099043;28;20176;-83
2022/06/18 09:40:57;;;;;;;5.35;2.60;;;;;;;;;;5114884;28;20043;-83
2022/06/18 09:43:29;;;;;;;5.40;2.45;;;;;;;;;;5099257;28;20047;-81
2022/06/18 09:45:57;;;;;;;7.05;3.25;;;;;;;;;;5095087;28;20031;-81
2022/06/18 09:48:24;;;;;;;3.85;2.38;;;;;;;;;;5104989;28;20486;-80
2022/06/18 09:51:02;;;;;;;8.63;3.25;;;;;;;;;;5114316;28;20031;-82
2022/06/18 09:53:36;;;;;;;6.90;3.10;;;;;;;;;;5098805;28;20035;-80
2022/06/18 09:56:07;;;;;;;6.03;3.08;;;;;;;;;;5114806;28;20049;-81
2022/06/18 09:58:36;;;;;;;6.05;3.33;;;;;;;;;;5114735;28;20414;-82
2022/06/18 10:01:04;;;;;;;5.20;2.90;;;;;;;;;;5098442;28;20133;-82
2022/06/18 10:09:07;;;;;;;6.82;2.20;;;;;;;;;;5114220;28;20042;-82
2022/06/18 10:11:34;;;;;;;7.70;2.70;;;;;;;;;;5113325;28;20119;-81
2022/06/18 10:14:15;;;;;;;6.13;2.80;;;;;;;;;;5095872;28;20038;-82
2022/06/18 10:16:51;;;;;;;4.90;2.47;;;;;;;;;;5097132;28;20038;-82
2022/06/18 10:19:20;;;;;;;5.32;2.90;;;;;;;;;;5078891;28;20031;-83
2022/06/18 10:21:54;;;;;;;7.43;2.33;;;;;;;;;;5096618;28;20035;-82
2022/06/18 10:24:26;;;;;;;4.38;2.17;;;;;;;;;;5117178;28;20401;-80
2022/06/18 10:27:08;;;;;;;4.45;2.97;;;;;;;;;;5080172;28;20066;-85
2022/06/18 10:29:47;;;;;;;6.85;2.40;;;;;;;;;;5096045;28;20080;-83
2022/06/18 10:32:17;;;;;;;6.25;2.63;;;;;;;;;;5083576;28;20046;-81
2022/06/18 10:35:02;;;;;;;5.43;2.25;;;;;;;;;;5080479;28;20590;-81
2022/06/18 10:37:29;;;;;;;4.57;2.60;;;;;;;;;;5090699;28;20075;-81
2022/06/18 10:40:07;;;;;;;5.43;2.20;;;;;;;;;;5090676;27;20570;-81
2022/06/18 10:42:45;;;;;;;4.82;2.10;;;;;;;;;;5084677;28;20076;-81
2022/06/18 10:45:31;;;;;;;5.28;2.17;;;;;;;;;;5080550;28;20087;-81
2022/06/18 10:47:57;;;;;;;6.68;3.08;;;;;;;;;;5092587;27;20406;-82
2022/06/18 10:50:28;;;;;;;6.00;2.30;;;;;;;;;;5099152;27;20039;-82
2022/06/18 10:53:02;;;;;;;6.07;2.50;;;;;;;;;;5101737;27;20046;-83
2022/06/18 10:55:29;;;;;;;5.28;2.55;;;;;;;;;;5089279;28;20495;-81
2022/06/18 10:58:06;;;;;;;6.32;2.33;;;;;;;;;;5093516;27;20517;-81
2022/06/18 11:00:32;;;;;;;4.85;2.35;;;;;;;;;;5096978;28;20050;-81
2022/06/18 11:03:01;;;;;;;5.75;2.30;;;;;;;;;;5079379;28;20088;-81
2022/06/18 11:05:37;;;;;;;5.13;1.90;;;;;;;;;;5078988;28;20047;-80
2022/06/18 11:08:05;;;;;;;5.22;2.10;;;;;;;;;;5078811;27;20036;-80
2022/06/18 11:10:39;;;;;;;5.68;2.17;;;;;;;;;;5099302;27;20448;-82
2022/06/18 11:13:07;;;;;;;6.28;2.40;;;;;;;;;;5117660;27;20039;-82
2022/06/18 11:15:35;;;;;;;5.78;2.22;;;;;;;;;;5098908;27;20396;-83
2022/06/18 11:18:21;;;;;;;8.00;2.65;;;;;;;;;;5097807;27;20065;-84
2022/06/18 11:21:13;;;;;;;4.95;2.30;;;;;;;;;;5103706;27;20554;-80
2022/06/18 11:23:45;;;;;;;4.57;2.20;;;;;;;;;;5078615;28;20345;-86
2022/06/18 11:26:16;;;;;;;4.72;2.08;;;;;;;;;;5095385;28;20040;-82
2022/06/18 11:28:46;;;;;;;7.75;1.95;;;;;;;;;;5102968;27;20059;-80
2022/06/18 11:31:21;;;;;;;6.40;2.00;;;;;;;;;;5084689;28;20120;-80
2022/06/18 11:33:47;;;;;;;;;;;;;;;;;;5093438;27;20752;-80
2022/06/18 11:36:15;;;;;;;4.13;2.00;;;;;;;;;;5076961;28;20395;-81
2022/06/18 11:38:50;;;;;;;5.75;2.20;;;;;;;;;;5077433;28;20039;-80
2022/06/18 11:41:23;;;;;;;3.13;1.85;;;;;;;;;;5077620;28;20244;-81
2022/06/18 11:44:09;;;;;;;6.38;2.10;;;;;;;;;;5097351;27;20039;-82
2022/06/18 11:46:44;;;;;;;5.32;2.15;;;;;;;;;;5086386;28;20044;-81
2022/06/18 11:49:19;;;;;;;5.18;2.35;;;;;;;;;;5076083;28;20054;-81
2022/06/18 11:51:46;;;;;;;4.45;2.15;;;;;;;;;;5073787;28;20044;-82
2022/06/18 11:54:25;;;;;;;3.88;1.67;;;;;;;;;;5071973;27;20084;-83
2022/06/18 11:57:00;;;;;;;4.22;1.95;;;;;;;;;;5083131;28;20039;-83
2022/06/18 11:59:35;;;;;;;3.35;1.60;;;;;;;;;;5113833;27;20043;-85
2022/06/18 12:02:01;;;;;;;;;;;;;;;;;;5108807;28;20474;-84
2022/06/18 12:04:39;;;;;;;5.30;1.65;;;;;;;;;;5093478;28;19922;-85
2022/06/18 12:07:11;;;;;;;2.70;1.33;;;;;;;;;;5092711;27;20066;-85
2022/06/18 12:09:37;;;;;;;4.22;1.75;;;;;;;;;;5099165;27;20447;-87
2022/06/18 12:12:03;;;;;;;2.50;1.60;;;;;;;;;;5087419;28;20330;-86
2022/06/18 12:14:35;;;;;;;4.53;1.58;;;;;;;;;;5106234;27;20042;-82
2022/06/18 12:17:07;;;;;;;6.80;1.65;;;;;;;;;;5112661;27;20135;-83
2022/06/18 12:19:47;;;;;;;8.98;1.83;;;;;;;;;;5076554;28;20032;-84
2022/06/18 12:22:26;;;;;;;3.88;1.50;;;;;;;;;;5077799;28;20040;-86
2022/06/18 12:24:52;;;;;;;1.92;1.27;;;;;;;;;;5094112;27;20054;-87
2022/06/18 12:27:31;;;;;;;3.83;1.60;;;;;;;;;;5087042;27;20424;-86
2022/06/18 12:30:00;;;;;;;2.63;1.60;;;;;;;;;;5086069;28;20063;-87
2022/06/18 12:32:41;;;;;;;5.85;1.70;;;;;;;;;;5075822;28;20128;-83
2022/06/18 12:35:26;;;;;;;2.85;1.40;;;;;;;;;;5065417;27;20047;-84
2022/06/18 12:37:56;;;;;;;6.03;1.73;;;;;;;;;;5101982;28;20043;-84
2022/06/18 12:40:37;;;;;;;4.28;1.40;;;;;;;;;;5091371;27;20047;-84
2022/06/18 12:43:11;;;;;;;3.05;1.60;;;;;;;;;;5055246;28;20378;-85
2022/06/18 12:45:40;;;;;;;3.50;1.60;;;;;;;;;;5072732;28;20081;-84
2022/06/18 12:48:19;;;;;;;4.47;1.60;;;;;;;;;;5056535;28;20498;-81
2022/06/18 12:50:46;;;;;;;3.45;1.70;;;;;;;;;;5080334;27;20039;-81
2022/06/18 12:53:31;;;;;;;4.30;1.83;;;;;;;;;;5112992;27;20046;-82
2022/06/18 12:56:11;;;;;;;6.10;1.60;;;;;;;;;;5096410;27;20089;-82
2022/06/18 12:58:49;;;;;;;4.57;1.80;;;;;;;;;;5063153;27;20089;-81
2022/06/18 13:01:38;;;;;;;4.72;1.60;;;;;;;;;;5085801;28;20044;-81
2022/06/18 13:04:07;;;;;;;5.97;1.70;;;;;;;;;;5077744;28;20039;-82
2022/06/18 13:06:55;;;;;;;5.57;1.67;;;;;;;;;;5090758;28;20495;-81
2022/06/18 13:09:21;;;;;;;5.03;1.75;;;;;;;;;;5072350;27;20050;-82
2022/06/18 13:12:11;;;;;;;7.03;2.00;;;;;;;;;;5096943;27;20372;-82
2022/06/18 13:14:50;;;;;;;4.22;1.77;;;;;;;;;;5097353;27;20039;-84
2022/06/18 13:17:38;;;;;;;7.35;2.22;;;;;;;;;;5097322;27;20042;-81
2022/06/18 13:20:30;;;;;;;8.95;2.05;;;;;;;;;;5076223;28;20046;-82
2022/06/18 13:22:56;;;;;;;5.53;1.83;;;;;;;;;;5099101;27;20079;-81
2022/06/18 13:28:26;;;;;;;5.97;1.88;;;;;;;;;;5076413;28;20445;-82
2022/06/18 13:30:52;;;;;;;;;;;;;;;;;;5076605;28;20039;-87
2022/06/18 13:33:39;;;;;;;7.10;1.88;;;;;;;;;;5075944;28;20367;-84
2022/06/18 13:36:08;;;;;;;8.10;2.00;;;;;;;;;;5092084;28;20047;-83
2022/06/18 13:38:43;;;;;;;4.88;1.80;;;;;;;;;;5103450;28;20088;-83
2022/06/18 13:41:09;;;;;;;7.22;2.10;;;;;;;;;;5088960;28;20092;-83
2022/06/18 13:43:36;;;;;;;6.63;1.92;;;;;;;;;;5093916;28;20562;-85
2022/06/18 13:46:08;;;;;;;5.80;1.73;;;;;;;;;;5080229;28;20463;-84
2022/06/18 13:48:54;;;;;;;8.52;2.20;;;;;;;;;;5101376;28;20064;-84
2022/06/18 13:51:25;;;;;;;5.45;2.00;;;;;;;;;;5056213;28;20082;-83
2022/06/18 13:53:51;;;;;;;7.43;1.83;;;;;;;;;;5086480;28;20044;-86
2022/06/18 13:56:22;;;;;;;7.00;2.20;;;;;;;;;;5075342;28;20046;-82
2022/06/18 13:58:57;;;;;;;6.03;1.80;;;;;;;;;;5075956;28;20039;-83
2022/06/18 14:01:24;;;;;;;8.38;1.75;;;;;;;;;;5077270;28;20043;-84
2022/06/18 14:03:53;;;;;;;9.98;2.25;;;;;;;;;;5095401;28;20105;-87
2022/06/18 14:06:20;;;;;;;6.75;1.85;;;;;;;;;;5112159;28;20047;-83
2022/06/18 14:08:50;;;;;;;7.30;1.90;;;;;;;;;;5097818;28;20074;-83
2022/06/18 14:11:28;;;;;;;9.43;2.10;;;;;;;;;;5093620;28;20563;-82
2022/06/18 14:13:55;;;;;;;6.88;1.80;;;;;;;;;;5078323;28;20032;-82
2022/06/18 14:16:30;;;;;;;7.97;1.85;;;;;;;;;;5075911;28;20134;-84
2022/06/18 14:19:11;;;;;;;10.00;1.70;;;;;;;;;;5092226;28;20046;-83
2022/06/18 14:21:38;;;;;;;9.27;2.17;;;;;;;;;;5085981;27;20047;-83
2022/06/18 14:24:05;;;;;;;7.32;1.63;;;;;;;;;;5099333;27;20039;-85
2022/06/18 14:26:40;;;;;;;6.32;2.08;;;;;;;;;;5096726;28;20126;-83
2022/06/18 14:29:06;;;;;;;8.23;1.67;;;;;;;;;;5081500;28;20048;-83
2022/06/18 14:31:59;;;;;;;8.00;1.60;;;;;;;;;;5080522;28;20050;-83
2022/06/18 14:34:44;;;;;;;8.40;2.13;;;;;;;;;;5092505;27;20057;-83
2022/06/18 14:37:11;;;;;;;8.05;1.73;;;;;;;;;;5093696;28;20035;-83
2022/06/18 14:39:57;;;;;;;8.30;1.88;;;;;;;;;;5079256;28;20035;-86
2022/06/18 14:42:56;;;;;;;6.60;1.50;;;;;;;;;;5080191;28;20097;-85
2022/06/18 14:45:25;;;;;;;6.32;1.70;;;;;;;;;;5057435;28;20135;-82
2022/06/18 14:48:27;;;;;;;8.70;1.70;;;;;;;;;;5076717;28;20044;-86
2022/06/18 14:50:53;;;;;;;6.72;1.52;;;;;;;;;;4996866;28;20180;-84
2022/06/18 14:53:38;;;;;;;8.05;1.90;;;;;;;;;;5065664;28;20128;-84
2022/06/18 14:56:04;;;;;;;;;;;;;;;;;;5098240;27;20050;-82
2022/06/18 14:58:45;;;;;;;6.18;1.60;;;;;;;;;;5100468;27;19922;-85
2022/06/18 15:01:34;;;;;;;9.50;2.53;;;;;;;;;;5093827;28;20117;-82
2022/06/18 15:04:09;;;;;;;9.27;1.98;;;;;;;;;;5079621;28;20089;-85
2022/06/18 15:06:36;;;;;;;7.80;1.52;;;;;;;;;;5096707;28;20420;-83
2022/06/18 15:09:04;;;;;;;8.43;1.80;;;;;;;;;;5096942;28;20036;-83
2022/06/18 15:11:31;;;;;;;7.68;1.70;;;;;;;;;;5096813;28;20033;-84
2022/06/18 15:13:58;;;;;;;6.40;1.90;;;;;;;;;;5097273;28;20047;-83